sensor_id;sensor_type;location;lat;lon;timestamp;P1;P2;P0
76049;PMS7003;64967;50.234;19.224;2023-04-24T00:00:13;13.50;11.50;8.75
76049;PMS7003;64967;50.234;19.224;2023-04-24T00:02:41;7.00;7.00;6.50
76049;PMS7003;64967;50.234;19.224;2023-04-24T00:05:18;9.00;9.00;6.75
76049;PMS7003;64967;50.234;19.224;2023-04-24T00:08:10;9.00;5.50;5.00
76049;PMS7003;64967;50.234;19.224;2023-04-24T00:11:01;11.75;9.50;8.00
76049;PMS7003;64967;50.234;19.224;2023-04-24T00:13:43;20.75;16.25;12.00
76049;PMS7003;64967;50.234;19.224;2023-04-24T00:16:10;24.50;20.25;14.25
76049;PMS7003;64967;50.234;19.224;2023-04-24T00:18:37;21.75;15.00;12.00
76049;PMS7003;64967;50.234;19.224;2023-04-24T00:21:04;18.00;16.50;11.50
76049;PMS7003;64967;50.234;19.224;2023-04-24T00:23:31;17.50;13.75;10.75
76049;PMS7003;64967;50.234;19.224;2023-04-24T00:25:58;15.75;12.00;10.00
76049;PMS7003;64967;50.234;19.224;2023-04-24T00:28:25;9.75;9.00;6.00
76049;PMS7003;64967;50.234;19.224;2023-04-24T00:30:52;9.00;8.00;6.00
76049;PMS7003;64967;50.234;19.224;2023-04-24T00:33:19;7.00;6.00;5.00
76049;PMS7003;64967;50.234;19.224;2023-04-24T00:35:46;7.75;6.00;5.00
76049;PMS7003;64967;50.234;19.224;2023-04-24T00:38:14;6.75;5.50;5.00
76049;PMS7003;64967;50.234;19.224;2023-04-24T00:40:42;6.25;6.25;4.25
76049;PMS7003;64967;50.234;19.224;2023-04-24T00:43:10;4.00;4.00;3.00
76049;PMS7003;64967;50.234;19.224;2023-04-24T00:45:38;5.00;4.00;4.00
76049;PMS7003;64967;50.234;19.224;2023-04-24T00:48:05;4.75;4.75;4.00
76049;PMS7003;64967;50.234;19.224;2023-04-24T00:50:33;6.75;4.25;4.00
76049;PMS7003;64967;50.234;19.224;2023-04-24T00:53:02;3.00;3.00;2.50
76049;PMS7003;64967;50.234;19.224;2023-04-24T00:55:29;2.75;2.75;2.00
76049;PMS7003;64967;50.234;19.224;2023-04-24T00:57:57;3.00;2.50;2.00
76049;PMS7003;64967;50.234;19.224;2023-04-24T01:00:24;3.00;3.00;2.00
76049;PMS7003;64967;50.234;19.224;2023-04-24T01:02:51;1.75;1.00;1.00
76049;PMS7003;64967;50.234;19.224;2023-04-24T01:05:24;1.25;1.25;1.00
76049;PMS7003;64967;50.234;19.224;2023-04-24T01:08:11;1.00;1.00;1.00
76049;PMS7003;64967;50.234;19.224;2023-04-24T01:10:57;2.00;2.00;2.00
76049;PMS7003;64967;50.234;19.224;2023-04-24T01:13:50;1.50;1.50;1.25
76049;PMS7003;64967;50.234;19.224;2023-04-24T01:16:38;1.00;0.00;0.00
76049;PMS7003;64967;50.234;19.224;2023-04-24T01:19:19;1.00;0.50;0.25
76049;PMS7003;64967;50.234;19.224;2023-04-24T01:21:46;1.75;1.75;1.25
76049;PMS7003;64967;50.234;19.224;2023-04-24T01:24:17;1.50;1.50;1.00
76049;PMS7003;64967;50.234;19.224;2023-04-24T01:26:46;14.50;11.00;9.00
76049;PMS7003;64967;50.234;19.224;2023-04-24T01:29:13;13.00;11.25;10.25
76049;PMS7003;64967;50.234;19.224;2023-04-24T01:31:40;10.75;8.50;7.25
76049;PMS7003;64967;50.234;19.224;2023-04-24T01:34:08;19.25;17.25;13.00
76049;PMS7003;64967;50.234;19.224;2023-04-24T01:36:35;19.50;17.00;12.50
76049;PMS7003;64967;50.234;19.224;2023-04-24T01:39:02;14.50;11.25;9.75
76049;PMS7003;64967;50.234;19.224;2023-04-24T01:41:30;22.00;18.25;13.00
76049;PMS7003;64967;50.234;19.224;2023-04-24T01:43:57;18.75;17.25;13.00
76049;PMS7003;64967;50.234;19.224;2023-04-24T01:46:24;13.50;12.25;9.50
76049;PMS7003;64967;50.234;19.224;2023-04-24T01:48:52;17.75;14.50;12.00
76049;PMS7003;64967;50.234;19.224;2023-04-24T01:51:20;14.25;14.00;11.00
76049;PMS7003;64967;50.234;19.224;2023-04-24T01:53:46;19.25;16.50;12.25
76049;PMS7003;64967;50.234;19.224;2023-04-24T01:56:13;13.00;12.00;9.50
76049;PMS7003;64967;50.234;19.224;2023-04-24T01:58:41;11.75;11.75;9.50
76049;PMS7003;64967;50.234;19.224;2023-04-24T02:01:09;12.75;11.25;9.00
76049;PMS7003;64967;50.234;19.224;2023-04-24T02:03:41;14.00;12.00;10.00
76049;PMS7003;64967;50.234;19.224;2023-04-24T02:06:09;12.50;10.25;8.75
76049;PMS7003;64967;50.234;19.224;2023-04-24T02:08:36;12.50;11.00;9.50
76049;PMS7003;64967;50.234;19.224;2023-04-24T02:11:03;10.75;10.25;9.00
76049;PMS7003;64967;50.234;19.224;2023-04-24T02:13:30;10.00;9.50;7.00
76049;PMS7003;64967;50.234;19.224;2023-04-24T02:15:58;13.25;11.50;9.75
76049;PMS7003;64967;50.234;19.224;2023-04-24T02:18:25;11.00;9.00;6.00
76049;PMS7003;64967;50.234;19.224;2023-04-24T02:20:52;9.00;8.25;5.75
76049;PMS7003;64967;50.234;19.224;2023-04-24T02:23:19;10.00;8.50;6.00
76049;PMS7003;64967;50.234;19.224;2023-04-24T02:25:46;6.00;6.00;5.00
76049;PMS7003;64967;50.234;19.224;2023-04-24T02:28:13;10.00;10.00;8.00
76049;PMS7003;64967;50.234;19.224;2023-04-24T02:30:40;13.25;13.00;10.75
76049;PMS7003;64967;50.234;19.224;2023-04-24T02:33:07;24.25;18.75;12.50
76049;PMS7003;64967;50.234;19.224;2023-04-24T02:35:34;22.75;18.75;13.00
76049;PMS7003;64967;50.234;19.224;2023-04-24T02:38:01;22.75;18.00;13.50
76049;PMS7003;64967;50.234;19.224;2023-04-24T02:40:29;27.50;27.50;18.75
76049;PMS7003;64967;50.234;19.224;2023-04-24T02:42:56;26.00;23.75;17.25
76049;PMS7003;64967;50.234;19.224;2023-04-24T02:45:23;17.75;12.00;10.00
76049;PMS7003;64967;50.234;19.224;2023-04-24T02:47:50;17.00;16.50;12.00
76049;PMS7003;64967;50.234;19.224;2023-04-24T02:50:17;16.50;13.00;11.00
76049;PMS7003;64967;50.234;19.224;2023-04-24T02:52:44;15.75;14.50;12.00
76049;PMS7003;64967;50.234;19.224;2023-04-24T02:55:11;12.00;12.00;10.25
76049;PMS7003;64967;50.234;19.224;2023-04-24T02:57:38;6.25;5.75;5.00
76049;PMS7003;64967;50.234;19.224;2023-04-24T03:00:05;14.25;11.50;9.75
76049;PMS7003;64967;50.234;19.224;2023-04-24T03:02:33;11.50;11.00;9.00
76049;PMS7003;64967;50.234;19.224;2023-04-24T03:05:01;9.25;8.25;6.00
76049;PMS7003;64967;50.234;19.224;2023-04-24T03:07:28;12.00;11.75;10.75
76049;PMS7003;64967;50.234;19.224;2023-04-24T03:09:56;6.00;4.75;4.75
76049;PMS7003;64967;50.234;19.224;2023-04-24T03:12:24;13.25;11.00;9.25
76049;PMS7003;64967;50.234;19.224;2023-04-24T03:14:51;16.25;13.50;10.00
76049;PMS7003;64967;50.234;19.224;2023-04-24T03:17:18;19.50;18.00;13.25
76049;PMS7003;64967;50.234;19.224;2023-04-24T03:19:45;16.00;15.25;12.00
76049;PMS7003;64967;50.234;19.224;2023-04-24T03:22:12;17.50;13.75;10.25
76049;PMS7003;64967;50.234;19.224;2023-04-24T03:24:40;19.75;17.25;12.00
76049;PMS7003;64967;50.234;19.224;2023-04-24T03:27:07;16.50;15.00;11.00
76049;PMS7003;64967;50.234;19.224;2023-04-24T03:29:34;15.25;13.50;9.75
76049;PMS7003;64967;50.234;19.224;2023-04-24T03:32:01;8.50;7.50;6.25
76049;PMS7003;64967;50.234;19.224;2023-04-24T03:34:28;12.75;12.00;9.00
76049;PMS7003;64967;50.234;19.224;2023-04-24T03:36:55;8.75;8.25;6.50
76049;PMS7003;64967;50.234;19.224;2023-04-24T03:39:21;1.00;0.00;0.00
76049;PMS7003;64967;50.234;19.224;2023-04-24T03:41:48;12.00;10.00;7.75
76049;PMS7003;64967;50.234;19.224;2023-04-24T03:44:15;16.50;11.75;9.00
76049;PMS7003;64967;50.234;19.224;2023-04-24T03:46:42;13.50;9.75;8.00
76049;PMS7003;64967;50.234;19.224;2023-04-24T03:49:09;11.75;10.00;7.25
76049;PMS7003;64967;50.234;19.224;2023-04-24T03:51:36;19.75;19.75;14.75
76049;PMS7003;64967;50.234;19.224;2023-04-24T03:54:03;16.25;14.50;9.25
76049;PMS7003;64967;50.234;19.224;2023-04-24T03:56:30;21.75;19.25;14.25
76049;PMS7003;64967;50.234;19.224;2023-04-24T03:58:57;17.50;15.50;11.00
76049;PMS7003;64967;50.234;19.224;2023-04-24T04:01:24;15.25;12.75;10.25
76049;PMS7003;64967;50.234;19.224;2023-04-24T04:03:51;11.25;9.75;8.00
76049;PMS7003;64967;50.234;19.224;2023-04-24T04:06:18;20.00;14.00;10.00
76049;PMS7003;64967;50.234;19.224;2023-04-24T04:08:45;9.50;9.00;8.00
76049;PMS7003;64967;50.234;19.224;2023-04-24T04:11:12;15.75;14.25;11.25
76049;PMS7003;64967;50.234;19.224;2023-04-24T04:13:40;14.25;11.25;9.00
76049;PMS7003;64967;50.234;19.224;2023-04-24T04:16:07;13.50;12.00;9.00
76049;PMS7003;64967;50.234;19.224;2023-04-24T04:18:35;9.50;9.00;8.25
76049;PMS7003;64967;50.234;19.224;2023-04-24T04:21:02;12.00;9.00;6.50
76049;PMS7003;64967;50.234;19.224;2023-04-24T04:23:29;6.75;5.75;5.00
76049;PMS7003;64967;50.234;19.224;2023-04-24T04:25:56;7.50;7.50;5.00
76049;PMS7003;64967;50.234;19.224;2023-04-24T04:28:23;15.00;12.75;10.00
76049;PMS7003;64967;50.234;19.224;2023-04-24T04:30:51;12.00;11.50;9.00
76049;PMS7003;64967;50.234;19.224;2023-04-24T04:33:21;11.50;10.50;9.00
76049;PMS7003;64967;50.234;19.224;2023-04-24T04:35:48;14.75;12.75;10.00
76049;PMS7003;64967;50.234;19.224;2023-04-24T04:38:16;13.50;12.50;10.00
76049;PMS7003;64967;50.234;19.224;2023-04-24T04:40:43;14.50;12.50;9.00
76049;PMS7003;64967;50.234;19.224;2023-04-24T04:43:11;10.50;8.75;8.50
76049;PMS7003;64967;50.234;19.224;2023-04-24T04:45:39;19.25;14.50;10.00
76049;PMS7003;64967;50.234;19.224;2023-04-24T04:48:08;18.50;12.00;10.00
76049;PMS7003;64967;50.234;19.224;2023-04-24T04:50:35;17.00;14.25;10.50
76049;PMS7003;64967;50.234;19.224;2023-04-24T04:53:02;18.00;16.00;12.00
76049;PMS7003;64967;50.234;19.224;2023-04-24T04:55:29;26.50;24.75;16.75
76049;PMS7003;64967;50.234;19.224;2023-04-24T04:57:56;31.00;25.75;18.75
76049;PMS7003;64967;50.234;19.224;2023-04-24T05:00:23;30.50;26.25;17.50
76049;PMS7003;64967;50.234;19.224;2023-04-24T05:02:51;32.25;25.00;17.50
76049;PMS7003;64967;50.234;19.224;2023-04-24T05:05:19;26.25;22.25;17.00
76049;PMS7003;64967;50.234;19.224;2023-04-24T05:07:46;28.00;23.75;18.00
76049;PMS7003;64967;50.234;19.224;2023-04-24T05:10:13;34.50;32.25;22.00
76049;PMS7003;64967;50.234;19.224;2023-04-24T05:12:40;33.00;30.25;21.50
76049;PMS7003;64967;50.234;19.224;2023-04-24T05:15:09;31.50;29.00;21.00
76049;PMS7003;64967;50.234;19.224;2023-04-24T05:17:36;20.00;18.75;13.50
76049;PMS7003;64967;50.234;19.224;2023-04-24T05:20:04;28.25;22.25;17.00
76049;PMS7003;64967;50.234;19.224;2023-04-24T05:22:36;39.25;34.50;23.25
76049;PMS7003;64967;50.234;19.224;2023-04-24T05:25:03;30.00;29.25;20.50
76049;PMS7003;64967;50.234;19.224;2023-04-24T05:27:30;32.25;30.75;21.75
76049;PMS7003;64967;50.234;19.224;2023-04-24T05:29:57;29.50;26.25;17.75
76049;PMS7003;64967;50.234;19.224;2023-04-24T05:32:24;21.75;19.25;14.75
76049;PMS7003;64967;50.234;19.224;2023-04-24T05:34:51;22.00;19.75;15.25
76049;PMS7003;64967;50.234;19.224;2023-04-24T05:37:18;12.50;12.50;9.00
76049;PMS7003;64967;50.234;19.224;2023-04-24T05:39:45;17.75;16.00;13.00
76049;PMS7003;64967;50.234;19.224;2023-04-24T05:42:12;19.50;18.00;13.25
76049;PMS7003;64967;50.234;19.224;2023-04-24T05:44:38;23.00;20.75;14.75
76049;PMS7003;64967;50.234;19.224;2023-04-24T05:47:05;28.75;25.25;19.25
76049;PMS7003;64967;50.234;19.224;2023-04-24T05:49:32;33.00;30.00;21.25
76049;PMS7003;64967;50.234;19.224;2023-04-24T05:51:59;22.25;20.50;17.75
76049;PMS7003;64967;50.234;19.224;2023-04-24T05:54:26;24.50;21.50;16.25
76049;PMS7003;64967;50.234;19.224;2023-04-24T05:56:53;18.00;17.25;14.00
76049;PMS7003;64967;50.234;19.224;2023-04-24T05:59:21;12.00;11.67;9.67
76049;PMS7003;64967;50.234;19.224;2023-04-24T06:01:48;9.00;9.00;8.00
76049;PMS7003;64967;50.234;19.224;2023-04-24T06:04:15;12.67;10.67;9.00
76049;PMS7003;64967;50.234;19.224;2023-04-24T06:06:42;9.00;9.00;8.00
76049;PMS7003;64967;50.234;19.224;2023-04-24T06:09:09;11.00;10.00;9.00
76049;PMS7003;64967;50.234;19.224;2023-04-24T06:11:36;9.33;8.00;7.00
76049;PMS7003;64967;50.234;19.224;2023-04-24T06:14:03;8.00;8.00;7.00
76049;PMS7003;64967;50.234;19.224;2023-04-24T06:16:30;9.00;9.00;8.00
76049;PMS7003;64967;50.234;19.224;2023-04-24T06:18:58;9.00;9.00;7.33
76049;PMS7003;64967;50.234;19.224;2023-04-24T06:21:24;9.00;9.00;7.00
76049;PMS7003;64967;50.234;19.224;2023-04-24T06:23:52;7.00;6.00;5.67
76049;PMS7003;64967;50.234;19.224;2023-04-24T06:26:19;8.00;8.00;7.00
76049;PMS7003;64967;50.234;19.224;2023-04-24T06:28:46;4.33;4.33;4.00
76049;PMS7003;64967;50.234;19.224;2023-04-24T06:31:13;5.00;5.00;4.00
76049;PMS7003;64967;50.234;19.224;2023-04-24T06:33:40;6.67;6.67;6.00
76049;PMS7003;64967;50.234;19.224;2023-04-24T06:36:07;7.00;7.00;6.00
76049;PMS7003;64967;50.234;19.224;2023-04-24T06:38:34;5.00;5.00;5.00
76049;PMS7003;64967;50.234;19.224;2023-04-24T06:41:01;10.00;8.00;7.33
76049;PMS7003;64967;50.234;19.224;2023-04-24T06:43:28;10.00;9.00;8.00
76049;PMS7003;64967;50.234;19.224;2023-04-24T06:45:55;7.00;7.00;6.67
76049;PMS7003;64967;50.234;19.224;2023-04-24T06:48:22;9.00;8.00;7.00
76049;PMS7003;64967;50.234;19.224;2023-04-24T06:50:50;5.67;5.67;5.00
76049;PMS7003;64967;50.234;19.224;2023-04-24T06:53:17;8.33;8.33;8.00
76049;PMS7003;64967;50.234;19.224;2023-04-24T06:55:44;7.67;7.67;7.00
76049;PMS7003;64967;50.234;19.224;2023-04-24T06:58:12;7.67;7.67;6.00
76049;PMS7003;64967;50.234;19.224;2023-04-24T07:00:39;8.33;7.00;6.67
76049;PMS7003;64967;50.234;19.224;2023-04-24T07:03:06;7.00;6.00;5.00
76049;PMS7003;64967;50.234;19.224;2023-04-24T07:05:33;9.67;8.33;7.00
76049;PMS7003;64967;50.234;19.224;2023-04-24T07:08:01;8.00;8.00;7.00
76049;PMS7003;64967;50.234;19.224;2023-04-24T07:10:29;5.00;5.00;5.00
76049;PMS7003;64967;50.234;19.224;2023-04-24T07:12:56;4.33;4.33;3.67
76049;PMS7003;64967;50.234;19.224;2023-04-24T07:15:23;9.00;8.33;7.00
76049;PMS7003;64967;50.234;19.224;2023-04-24T07:17:50;7.00;7.00;6.00
76049;PMS7003;64967;50.234;19.224;2023-04-24T07:20:17;11.00;11.00;9.00
76049;PMS7003;64967;50.234;19.224;2023-04-24T07:22:44;11.00;9.00;7.00
76049;PMS7003;64967;50.234;19.224;2023-04-24T07:25:11;4.00;4.00;4.00
76049;PMS7003;64967;50.234;19.224;2023-04-24T07:27:38;9.00;9.00;8.00
76049;PMS7003;64967;50.234;19.224;2023-04-24T07:30:05;10.00;10.00;8.00
76049;PMS7003;64967;50.234;19.224;2023-04-24T07:32:33;7.00;7.00;6.00
76049;PMS7003;64967;50.234;19.224;2023-04-24T07:35:00;5.67;5.67;4.33
76049;PMS7003;64967;50.234;19.224;2023-04-24T07:37:27;5.00;5.00;4.00
76049;PMS7003;64967;50.234;19.224;2023-04-24T07:39:54;4.00;4.00;3.33
76049;PMS7003;64967;50.234;19.224;2023-04-24T07:42:22;4.67;4.67;4.00
76049;PMS7003;64967;50.234;19.224;2023-04-24T07:44:49;3.00;3.00;3.00
76049;PMS7003;64967;50.234;19.224;2023-04-24T07:47:16;3.67;3.67;3.00
76049;PMS7003;64967;50.234;19.224;2023-04-24T07:49:43;4.00;4.00;4.00
76049;PMS7003;64967;50.234;19.224;2023-04-24T07:52:10;5.00;5.00;4.00
76049;PMS7003;64967;50.234;19.224;2023-04-24T07:54:37;4.00;4.00;3.33
76049;PMS7003;64967;50.234;19.224;2023-04-24T07:57:04;6.00;6.00;5.00
76049;PMS7003;64967;50.234;19.224;2023-04-24T07:59:33;7.00;6.33;5.33
76049;PMS7003;64967;50.234;19.224;2023-04-24T08:02:00;4.67;4.00;4.00
76049;PMS7003;64967;50.234;19.224;2023-04-24T08:04:28;4.00;4.00;3.33
76049;PMS7003;64967;50.234;19.224;2023-04-24T08:06:55;4.00;4.00;4.00
76049;PMS7003;64967;50.234;19.224;2023-04-24T08:09:22;4.33;4.00;3.33
76049;PMS7003;64967;50.234;19.224;2023-04-24T08:11:52;3.33;2.67;2.33
76049;PMS7003;64967;50.234;19.224;2023-04-24T08:14:19;3.33;3.33;3.00
76049;PMS7003;64967;50.234;19.224;2023-04-24T08:16:46;3.33;3.00;2.67
76049;PMS7003;64967;50.234;19.224;2023-04-24T08:19:13;4.67;4.00;3.00
76049;PMS7003;64967;50.234;19.224;2023-04-24T08:21:40;3.00;3.00;2.67
76049;PMS7003;64967;50.234;19.224;2023-04-24T08:24:07;4.00;4.00;4.00
76049;PMS7003;64967;50.234;19.224;2023-04-24T08:26:34;4.00;4.00;4.00
76049;PMS7003;64967;50.234;19.224;2023-04-24T08:29:01;3.00;2.33;2.33
76049;PMS7003;64967;50.234;19.224;2023-04-24T08:31:29;8.67;7.00;6.00
76049;PMS7003;64967;50.234;19.224;2023-04-24T08:33:56;5.33;5.00;4.00
76049;PMS7003;64967;50.234;19.224;2023-04-24T08:36:22;5.00;5.00;4.00
76049;PMS7003;64967;50.234;19.224;2023-04-24T08:38:58;4.00;4.00;3.33
76049;PMS7003;64967;50.234;19.224;2023-04-24T08:41:25;3.33;3.33;2.00
76049;PMS7003;64967;50.234;19.224;2023-04-24T08:43:53;5.00;4.33;4.00
76049;PMS7003;64967;50.234;19.224;2023-04-24T08:46:24;4.00;4.00;3.00
76049;PMS7003;64967;50.234;19.224;2023-04-24T08:48:52;5.33;5.00;5.00
76049;PMS7003;64967;50.234;19.224;2023-04-24T08:51:19;7.00;7.00;6.00
76049;PMS7003;64967;50.234;19.224;2023-04-24T08:53:47;7.00;7.00;6.00
76049;PMS7003;64967;50.234;19.224;2023-04-24T08:56:15;5.00;5.00;4.00
76049;PMS7003;64967;50.234;19.224;2023-04-24T08:58:42;5.00;3.67;3.33
76049;PMS7003;64967;50.234;19.224;2023-04-24T09:01:10;3.00;3.00;3.00
76049;PMS7003;64967;50.234;19.224;2023-04-24T09:03:38;3.00;3.00;3.00
76049;PMS7003;64967;50.234;19.224;2023-04-24T09:06:06;6.00;6.00;5.00
76049;PMS7003;64967;50.234;19.224;2023-04-24T09:08:35;3.00;3.00;2.00
76049;PMS7003;64967;50.234;19.224;2023-04-24T09:11:02;4.67;4.67;4.00
76049;PMS7003;64967;50.234;19.224;2023-04-24T09:13:30;3.67;3.67;3.33
76049;PMS7003;64967;50.234;19.224;2023-04-24T09:15:58;5.33;5.33;4.00
76049;PMS7003;64967;50.234;19.224;2023-04-24T09:18:26;9.33;9.33;8.33
76049;PMS7003;64967;50.234;19.224;2023-04-24T09:21:01;12.00;12.00;10.00
76049;PMS7003;64967;50.234;19.224;2023-04-24T09:23:34;11.33;11.00;8.00
76049;PMS7003;64967;50.234;19.224;2023-04-24T09:26:02;11.33;10.67;9.67
76049;PMS7003;64967;50.234;19.224;2023-04-24T09:33:34;8.00;8.00;7.00
76049;PMS7003;64967;50.234;19.224;2023-04-24T09:36:02;7.00;7.00;6.00
76049;PMS7003;64967;50.234;19.224;2023-04-24T09:41:01;9.00;9.00;8.00
76049;PMS7003;64967;50.234;19.224;2023-04-24T09:43:30;9.67;8.67;8.33
76049;PMS7003;64967;50.234;19.224;2023-04-24T09:45:57;12.00;9.00;8.00
76049;PMS7003;64967;50.234;19.224;2023-04-24T09:48:35;8.67;8.67;7.00
76049;PMS7003;64967;50.234;19.224;2023-04-24T09:51:04;5.33;5.00;4.67
76049;PMS7003;64967;50.234;19.224;2023-04-24T09:53:37;5.67;5.67;5.00
76049;PMS7003;64967;50.234;19.224;2023-04-24T09:56:08;5.00;5.00;5.00
76049;PMS7003;64967;50.234;19.224;2023-04-24T09:58:36;8.00;7.67;7.00
76049;PMS7003;64967;50.234;19.224;2023-04-24T10:01:03;10.00;9.00;7.67
76049;PMS7003;64967;50.234;19.224;2023-04-24T10:03:31;11.00;10.00;9.00
76049;PMS7003;64967;50.234;19.224;2023-04-24T10:05:59;9.00;8.33;8.00
76049;PMS7003;64967;50.234;19.224;2023-04-24T10:08:36;7.00;6.00;5.00
76049;PMS7003;64967;50.234;19.224;2023-04-24T10:11:04;5.67;5.67;5.00
76049;PMS7003;64967;50.234;19.224;2023-04-24T10:13:31;4.67;4.67;4.67
76049;PMS7003;64967;50.234;19.224;2023-04-24T10:15:59;4.00;4.00;3.67
76049;PMS7003;64967;50.234;19.224;2023-04-24T10:18:27;5.00;4.33;4.00
76049;PMS7003;64967;50.234;19.224;2023-04-24T10:20:56;9.33;9.33;8.00
76049;PMS7003;64967;50.234;19.224;2023-04-24T10:23:26;9.00;9.00;7.00
76049;PMS7003;64967;50.234;19.224;2023-04-24T10:25:54;6.00;4.33;4.00
76049;PMS7003;64967;50.234;19.224;2023-04-24T10:28:22;5.33;5.00;4.00
76049;PMS7003;64967;50.234;19.224;2023-04-24T10:30:50;4.00;4.00;3.00
76049;PMS7003;64967;50.234;19.224;2023-04-24T10:33:21;5.00;4.00;3.00
76049;PMS7003;64967;50.234;19.224;2023-04-24T10:35:50;5.00;5.00;4.67
76049;PMS7003;64967;50.234;19.224;2023-04-24T10:38:23;10.00;10.00;9.00
76049;PMS7003;64967;50.234;19.224;2023-04-24T10:40:51;12.00;11.67;10.33
76049;PMS7003;64967;50.234;19.224;2023-04-24T10:43:33;13.00;12.00;10.00
76049;PMS7003;64967;50.234;19.224;2023-04-24T10:46:01;9.00;9.00;8.00
76049;PMS7003;64967;50.234;19.224;2023-04-24T10:48:29;7.00;7.00;6.00
76049;PMS7003;64967;50.234;19.224;2023-04-24T10:50:57;6.00;6.00;5.00
76049;PMS7003;64967;50.234;19.224;2023-04-24T10:53:27;6.00;5.00;4.00
76049;PMS7003;64967;50.234;19.224;2023-04-24T10:55:59;5.00;5.00;4.67
76049;PMS7003;64967;50.234;19.224;2023-04-24T10:58:36;6.00;5.00;4.33
76049;PMS7003;64967;50.234;19.224;2023-04-24T11:01:06;7.33;6.00;5.67
76049;PMS7003;64967;50.234;19.224;2023-04-24T11:03:34;8.00;7.00;6.67
76049;PMS7003;64967;50.234;19.224;2023-04-24T11:06:04;14.00;13.00;10.00
76049;PMS7003;64967;50.234;19.224;2023-04-24T11:08:39;11.00;11.00;9.33
76049;PMS7003;64967;50.234;19.224;2023-04-24T11:16:29;10.00;8.67;7.67
76049;PMS7003;64967;50.234;19.224;2023-04-24T11:21:59;8.33;7.00;6.00
76049;PMS7003;64967;50.234;19.224;2023-04-24T11:24:31;11.00;10.00;8.33
76049;PMS7003;64967;50.234;19.224;2023-04-24T11:26:59;13.33;11.00;10.00
76049;PMS7003;64967;50.234;19.224;2023-04-24T11:29:47;10.67;9.67;8.67
76049;PMS7003;64967;50.234;19.224;2023-04-24T11:32:17;8.67;8.67;7.33
76049;PMS7003;64967;50.234;19.224;2023-04-24T11:34:50;8.67;8.33;7.33
76049;PMS7003;64967;50.234;19.224;2023-04-24T11:37:18;9.00;9.00;8.00
76049;PMS7003;64967;50.234;19.224;2023-04-24T11:39:45;8.00;7.00;6.33
76049;PMS7003;64967;50.234;19.224;2023-04-24T11:42:14;13.00;11.00;9.33
76049;PMS7003;64967;50.234;19.224;2023-04-24T11:44:42;11.33;10.00;8.00
76049;PMS7003;64967;50.234;19.224;2023-04-24T11:47:09;7.33;7.00;6.00
76049;PMS7003;64967;50.234;19.224;2023-04-24T11:49:37;7.33;6.67;6.00
76049;PMS7003;64967;50.234;19.224;2023-04-24T11:52:04;8.00;6.33;5.33
76049;PMS7003;64967;50.234;19.224;2023-04-24T11:54:31;6.67;5.00;5.00
76049;PMS7003;64967;50.234;19.224;2023-04-24T11:56:58;8.00;7.33;6.00
76049;PMS7003;64967;50.234;19.224;2023-04-24T11:59:26;7.67;7.67;6.33
76049;PMS7003;64967;50.234;19.224;2023-04-24T12:01:53;9.00;8.33;7.33
76049;PMS7003;64967;50.234;19.224;2023-04-24T12:04:20;9.00;8.00;7.33
76049;PMS7003;64967;50.234;19.224;2023-04-24T12:07:00;8.33;7.33;6.33
76049;PMS7003;64967;50.234;19.224;2023-04-24T12:09:28;10.33;10.33;8.67
76049;PMS7003;64967;50.234;19.224;2023-04-24T12:12:06;9.00;9.00;7.00
76049;PMS7003;64967;50.234;19.224;2023-04-24T12:14:41;9.33;9.33;7.00
76049;PMS7003;64967;50.234;19.224;2023-04-24T12:17:15;9.33;9.00;8.67
76049;PMS7003;64967;50.234;19.224;2023-04-24T12:19:46;7.00;7.00;6.33
76049;PMS7003;64967;50.234;19.224;2023-04-24T12:22:14;7.00;6.00;6.00
76049;PMS7003;64967;50.234;19.224;2023-04-24T12:25:01;8.67;8.00;7.33
76049;PMS7003;64967;50.234;19.224;2023-04-24T12:27:30;8.00;8.00;8.00
76049;PMS7003;64967;50.234;19.224;2023-04-24T12:30:00;7.67;6.33;5.67
76049;PMS7003;64967;50.234;19.224;2023-04-24T12:32:29;7.00;7.00;6.00
76049;PMS7003;64967;50.234;19.224;2023-04-24T12:34:57;7.00;7.00;5.33
76049;PMS7003;64967;50.234;19.224;2023-04-24T12:37:25;6.67;5.00;4.67
76049;PMS7003;64967;50.234;19.224;2023-04-24T12:39:59;12.00;10.67;8.67
76049;PMS7003;64967;50.234;19.224;2023-04-24T12:42:27;9.33;8.33;7.33
76049;PMS7003;64967;50.234;19.224;2023-04-24T12:45:05;9.00;8.33;6.67
76049;PMS7003;64967;50.234;19.224;2023-04-24T12:47:33;7.33;6.67;5.67
76049;PMS7003;64967;50.234;19.224;2023-04-24T12:50:01;7.67;7.00;6.67
76049;PMS7003;64967;50.234;19.224;2023-04-24T12:52:29;7.33;7.00;5.67
76049;PMS7003;64967;50.234;19.224;2023-04-24T12:54:57;6.67;6.33;5.33
76049;PMS7003;64967;50.234;19.224;2023-04-24T12:57:27;7.67;7.33;6.33
76049;PMS7003;64967;50.234;19.224;2023-04-24T12:59:55;5.67;4.33;4.33
76049;PMS7003;64967;50.234;19.224;2023-04-24T13:02:23;9.33;9.00;7.00
76049;PMS7003;64967;50.234;19.224;2023-04-24T13:04:52;10.00;9.33;8.00
76049;PMS7003;64967;50.234;19.224;2023-04-24T13:07:19;8.00;7.67;6.67
76049;PMS7003;64967;50.234;19.224;2023-04-24T13:09:47;8.00;7.67;6.00
76049;PMS7003;64967;50.234;19.224;2023-04-24T13:12:15;11.00;10.67;9.33
76049;PMS7003;64967;50.234;19.224;2023-04-24T13:14:43;6.00;6.00;5.33
76049;PMS7003;64967;50.234;19.224;2023-04-24T13:17:10;7.33;7.33;7.00
76049;PMS7003;64967;50.234;19.224;2023-04-24T13:19:39;7.00;7.00;5.33
76049;PMS7003;64967;50.234;19.224;2023-04-24T13:22:09;6.00;6.00;5.33
76049;PMS7003;64967;50.234;19.224;2023-04-24T13:24:37;6.67;6.00;5.00
76049;PMS7003;64967;50.234;19.224;2023-04-24T13:27:07;10.67;10.67;8.33
76049;PMS7003;64967;50.234;19.224;2023-04-24T13:29:35;9.33;9.33;7.00
76049;PMS7003;64967;50.234;19.224;2023-04-24T13:32:03;8.00;8.00;7.00
76049;PMS7003;64967;50.234;19.224;2023-04-24T13:34:30;6.67;6.67;6.33
76049;PMS7003;64967;50.234;19.224;2023-04-24T13:36:57;6.33;6.00;5.00
76049;PMS7003;64967;50.234;19.224;2023-04-24T13:39:25;6.67;6.67;6.00
76049;PMS7003;64967;50.234;19.224;2023-04-24T13:41:53;6.00;6.00;5.00
76049;PMS7003;64967;50.234;19.224;2023-04-24T13:44:20;5.00;5.00;4.00
76049;PMS7003;64967;50.234;19.224;2023-04-24T13:46:49;5.67;5.33;5.00
76049;PMS7003;64967;50.234;19.224;2023-04-24T13:49:20;6.00;6.00;5.00
76049;PMS7003;64967;50.234;19.224;2023-04-24T13:51:48;7.00;7.00;6.33
76049;PMS7003;64967;50.234;19.224;2023-04-24T13:54:15;7.00;6.00;5.00
76049;PMS7003;64967;50.234;19.224;2023-04-24T13:56:41;10.00;7.00;5.00
76049;PMS7003;64967;50.234;19.224;2023-04-24T13:59:09;5.00;5.00;4.00
76049;PMS7003;64967;50.234;19.224;2023-04-24T14:01:36;6.00;6.00;5.00
76049;PMS7003;64967;50.234;19.224;2023-04-24T14:04:03;6.00;6.00;5.33
76049;PMS7003;64967;50.234;19.224;2023-04-24T14:06:30;5.33;5.33;5.00
76049;PMS7003;64967;50.234;19.224;2023-04-24T14:09:03;6.00;6.00;5.00
76049;PMS7003;64967;50.234;19.224;2023-04-24T14:12:27;7.00;6.67;6.00
76049;PMS7003;64967;50.234;19.224;2023-04-24T14:14:54;7.00;6.33;5.33
76049;PMS7003;64967;50.234;19.224;2023-04-24T14:17:21;7.50;7.50;6.50
76049;PMS7003;64967;50.234;19.224;2023-04-24T14:19:48;8.00;8.00;6.00
76049;PMS7003;64967;50.234;19.224;2023-04-24T14:22:15;5.75;5.75;5.50